Accueil
METAR-TAF:

METAR-TAF

Aéroports :

Aéroport international de Ouagadougou

Ouagadougou, Burkina Faso

latitude: 12-21N, longitude: 001-31W, altitude: 316 m

Observation

Le bulletin a été fait il y a 1 heure et 5 minutes, à 06:00 UTC
Vent 5 kt de nord
Température 18°C
Humidité 15%
Pression 1014 hPa
Visibilité 10 km ou plus
pas de nuages en-dessous de 1500 mètres et pas de cumulonimbus.

METAR: DFFD 230600Z 36005KT CAVOK 18/M09 Q1014 TEMPO 4000 DU

Heure: 07:05 (07:05 UTC)

Prévision

Le bulletin a été fait il y a 2 heures et 5 minutes, à 05:00 UTC
Prévision valable du 23 à 06 UTC au 24 à 12 UTC
Vent 10 kt de nord
Visibilité: 8000 m
Temporairement
du 23 à 06 UTC au 23 à 10 UTC
Visibilité: 4000 m
brume sèche
Temporairement
du 24 à 06 UTC au 24 à 10 UTC
Visibilité: 4000 m
brume sèche

TAF: DFFD 230500Z 2306/2412 36010KT 8000 NSC TEMPO 2306/2310 4000 HZ TEMPO 2406/2410 4000 HZ

Observations et prévisions météorologiques de plus de 4000 aéroports (messages METAR et TAF).

Les stations disponibles sont représentées par des disques jaunes et rouges sur la carte.

Passer la souris dessus pour voir le nom de la station.

Cliquer dessus pour voir les observations et prévisions météorologiques.

Pour changer de carte: cliquez sur les boutons verts avec une croix noire pour zoomer, sur le bouton vert avec un tiret pour effectuer un zoom arrière, ou sur les flèches vertes pour les cartes adjacentes.


METAR-TAF: